Time;durP1;ratioP1;P1;durP2;ratioP2;P2;SDS_P1;SDS_P2;PMS_P1;PMS_P2;Temp;Humidity;BMP_temperature;BMP_pressure;BME280_temperature;BME280_humidity;BME280_pressure;Samples;Min_cycle;Max_cycle;Signal;HPM_P1;HPM_P2
2021/04/28 00:00:18;;;;;;;8.10;3.80;;;;;;;8.58;48.52;97651.38;5075079;28;20058;-70
2021/04/28 00:02:43;;;;;;;7.95;3.25;;;;;;;8.45;48.91;97652.28;5089402;28;20381;-70
2021/04/28 00:05:10;;;;;;;5.80;3.50;;;;;;;8.27;49.44;97644.91;5081318;28;20026;-70
2021/04/28 00:07:36;;;;;;;5.28;3.20;;;;;;;8.05;49.82;97656.03;5072204;28;20042;-70
2021/04/28 00:10:05;;;;;;;7.82;4.18;;;;;;;8.27;49.11;97647.59;5073264;28;20024;-70
2021/04/28 00:12:31;;;;;;;10.38;3.95;;;;;;;8.21;49.50;97640.41;5080703;28;20112;-70
2021/04/28 00:14:56;;;;;;;7.75;3.88;;;;;;;8.19;49.24;97642.47;5054468;28;20085;-70
2021/04/28 00:17:22;;;;;;;8.55;3.72;;;;;;;7.96;49.39;97640.31;5076836;28;20028;-69
2021/04/28 00:19:47;;;;;;;7.97;4.03;;;;;;;7.94;50.08;97640.56;5089670;28;20089;-70
2021/04/28 00:22:12;;;;;;;7.40;3.85;;;;;;;7.78;50.77;97633.78;5092521;28;20054;-69
2021/04/28 00:24:38;;;;;;;6.10;3.85;;;;;;;7.75;50.83;97641.44;5079774;28;20039;-70
2021/04/28 00:27:04;;;;;;;11.57;3.95;;;;;;;7.59;51.29;97632.81;5075013;28;20020;-70
2021/04/28 00:29:29;;;;;;;7.22;3.80;;;;;;;7.82;51.06;97628.78;5072545;28;20081;-70
2021/04/28 00:31:56;;;;;;;6.45;3.70;;;;;;;7.68;51.04;97620.78;5072527;28;20059;-70
2021/04/28 00:34:21;;;;;;;5.78;3.42;;;;;;;7.54;51.39;97629.13;5072956;28;20060;-69
2021/04/28 00:36:46;;;;;;;8.25;4.00;;;;;;;7.43;51.71;97633.28;5074488;28;20108;-70
2021/04/28 00:39:11;;;;;;;6.55;3.42;;;;;;;7.44;51.57;97632.25;5071833;28;20032;-69
2021/04/28 00:41:37;;;;;;;7.72;4.05;;;;;;;7.57;50.84;97620.59;5074028;28;20592;-69
2021/04/28 00:44:03;;;;;;;6.60;3.63;;;;;;;7.69;51.12;97629.69;5054790;28;20501;-70
2021/04/28 00:46:28;;;;;;;7.38;3.72;;;;;;;7.69;51.22;97617.03;5059805;28;20047;-69
2021/04/28 00:48:54;;;;;;;8.10;4.00;;;;;;;7.57;51.13;97617.91;5072978;28;20024;-70
2021/04/28 00:51:20;;;;;;;7.30;4.10;;;;;;;7.63;51.48;97622.47;5073001;28;20048;-70
2021/04/28 00:53:46;;;;;;;7.60;3.80;;;;;;;7.57;51.83;97618.78;5074543;28;20043;-69
2021/04/28 00:56:11;;;;;;;10.18;4.32;;;;;;;7.48;52.01;97614.66;5072263;28;20041;-70
2021/04/28 00:58:37;;;;;;;5.60;3.70;;;;;;;7.43;51.45;97622.53;5086814;28;20028;-70
2021/04/28 01:01:03;;;;;;;7.05;3.67;;;;;;;7.38;52.69;97625.84;5073348;28;20432;-70
2021/04/28 01:03:29;;;;;;;6.82;4.07;;;;;;;7.31;52.97;97625.06;5085725;28;20390;-69
2021/04/28 01:05:58;;;;;;;10.20;4.10;;;;;;;7.25;53.05;97617.81;5081940;28;20028;-69
2021/04/28 01:08:24;;;;;;;8.27;3.60;;;;;;;7.09;53.48;97618.28;5079185;28;20025;-69
2021/04/28 01:10:50;;;;;;;9.80;4.03;;;;;;;6.91;53.82;97606.31;5075803;28;20105;-69
2021/04/28 01:13:17;;;;;;;9.05;3.83;;;;;;;6.95;54.19;97620.19;5082060;28;20115;-69
2021/04/28 01:15:44;;;;;;;6.63;3.88;;;;;;;7.05;53.68;97625.09;5079697;28;20492;-70
2021/04/28 01:18:09;;;;;;;9.65;4.32;;;;;;;6.89;54.01;97605.72;5076927;28;20043;-70
2021/04/28 01:20:39;;;;;;;7.25;3.65;;;;;;;6.85;53.40;97599.09;5076156;28;20037;-70
2021/04/28 01:23:06;;;;;;;7.60;4.20;;;;;;;7.29;52.63;97620.94;5071781;28;20096;-69
2021/04/28 01:25:33;;;;;;;7.28;4.20;;;;;;;7.16;53.03;97616.41;5075733;28;20202;-69
2021/04/28 01:28:06;;;;;;;8.02;3.78;;;;;;;7.02;53.11;97621.81;5080435;28;20028;-69
2021/04/28 01:30:34;;;;;;;6.68;3.53;;;;;;;6.87;53.73;97597.03;5092412;28;20035;-69
2021/04/28 01:33:02;;;;;;;7.20;3.28;;;;;;;6.92;54.35;97615.22;5094570;28;20078;-69
2021/04/28 01:35:28;;;;;;;8.13;3.63;;;;;;;6.90;53.85;97617.28;5085469;28;20033;-70
2021/04/28 01:37:55;;;;;;;9.00;3.75;;;;;;;6.95;53.87;97620.19;5064777;28;20021;-70
2021/04/28 01:40:22;;;;;;;9.43;3.97;;;;;;;6.99;53.45;97616.84;5075690;28;20482;-70
2021/04/28 01:42:50;;;;;;;8.70;3.90;;;;;;;6.85;54.01;97606.34;5077188;28;20496;-69
2021/04/28 01:45:16;;;;;;;7.25;3.22;;;;;;;6.89;54.66;97615.63;5081204;28;20366;-69
2021/04/28 01:47:42;;;;;;;10.27;4.28;;;;;;;7.29;52.73;97612.88;5081095;28;20031;-69
2021/04/28 01:50:12;;;;;;;7.30;3.55;;;;;;;7.22;52.59;97616.38;5095468;28;20027;-69
2021/04/28 01:52:38;;;;;;;12.13;4.07;;;;;;;7.55;52.50;97611.94;5078021;28;20039;-69
2021/04/28 01:55:05;;;;;;;8.07;3.72;;;;;;;7.56;51.94;97600.13;5075749;28;20032;-69
2021/04/28 01:57:32;;;;;;;10.57;3.88;;;;;;;7.43;52.87;97607.22;5061320;28;20035;-69
2021/04/28 01:59:57;;;;;;;6.03;3.45;;;;;;;7.22;53.09;97613.69;5085881;28;20117;-69
2021/04/28 02:02:23;;;;;;;6.82;4.30;;;;;;;6.94;54.15;97605.91;5083843;28;20517;-69
2021/04/28 02:04:49;;;;;;;6.72;4.15;;;;;;;6.83;54.98;97611.91;5075664;28;20547;-69
2021/04/28 02:07:15;;;;;;;9.60;3.60;;;;;;;6.68;55.06;97614.84;5078583;28;20024;-69
2021/04/28 02:09:40;;;;;;;6.78;3.90;;;;;;;6.53;55.27;97611.53;5074681;28;20119;-69
2021/04/28 02:12:06;;;;;;;7.03;3.90;;;;;;;6.36;55.86;97611.09;5076829;28;20460;-69
2021/04/28 02:14:33;;;;;;;6.43;3.78;;;;;;;6.33;56.79;97604.28;5076725;28;20027;-70
2021/04/28 02:16:58;;;;;;;9.77;4.03;;;;;;;6.30;56.66;97617.28;5075015;28;20032;-69
2021/04/28 02:19:24;;;;;;;9.95;3.92;;;;;;;6.23;56.81;97606.53;5084943;28;20427;-69
2021/04/28 02:21:51;;;;;;;8.38;4.07;;;;;;;6.25;56.73;97599.09;5083730;28;20056;-69
2021/04/28 02:24:16;;;;;;;10.15;4.43;;;;;;;6.30;56.35;97591.25;5070150;28;20024;-70
2021/04/28 02:26:43;;;;;;;7.35;4.47;;;;;;;6.38;55.78;97600.97;5084154;28;20032;-70
2021/04/28 02:29:10;;;;;;;8.02;3.90;;;;;;;6.47;56.28;97593.53;5094727;28;20039;-70
2021/04/28 02:31:36;;;;;;;8.02;4.15;;;;;;;6.36;56.52;97601.16;5073848;28;20039;-70
2021/04/28 02:34:04;;;;;;;6.38;3.90;;;;;;;6.32;56.28;97602.63;5088215;28;20031;-70
2021/04/28 02:36:33;;;;;;;7.20;3.83;;;;;;;6.19;57.30;97591.06;5077031;28;20028;-69
2021/04/28 02:39:04;;;;;;;7.47;4.28;;;;;;;6.11;57.54;97594.75;5077473;28;20492;-69
2021/04/28 02:41:30;;;;;;;12.38;4.60;;;;;;;5.98;58.05;97592.06;5074621;28;20486;-69
2021/04/28 02:43:57;;;;;;;9.85;5.20;;;;;;;5.82;59.11;97586.00;5056743;28;20044;-69
2021/04/28 02:46:23;;;;;;;8.50;4.50;;;;;;;5.78;58.89;97581.25;5081145;28;20477;-69
2021/04/28 02:48:50;;;;;;;8.38;4.65;;;;;;;5.65;59.89;97584.72;5092140;28;20462;-69
2021/04/28 02:51:16;;;;;;;9.18;4.63;;;;;;;5.55;59.96;97582.41;5076001;28;20401;-70
2021/04/28 02:53:45;;;;;;;10.18;4.57;;;;;;;5.45;60.12;97572.06;5078752;28;20024;-69
2021/04/28 02:56:11;;;;;;;;;;;;;;;5.65;60.18;97587.38;5093269;28;20032;-70
2021/04/28 02:58:37;;;;;;;8.88;4.05;;;;;;;5.58;59.88;97581.16;5083422;28;20382;-70
2021/04/28 03:01:04;;;;;;;8.63;4.82;;;;;;;5.48;61.11;97570.84;5057802;28;20028;-69
2021/04/28 03:03:30;;;;;;;7.65;4.13;;;;;;;5.45;60.84;97572.06;5060872;28;20020;-69
2021/04/28 03:05:55;;;;;;;9.18;4.40;;;;;;;5.43;61.58;97582.16;5081776;28;20028;-69
2021/04/28 03:08:21;;;;;;;10.15;4.53;;;;;;;5.46;61.44;97578.25;5088390;28;20035;-70
2021/04/28 03:10:48;;;;;;;7.90;4.60;;;;;;;5.42;61.55;97583.22;5084636;28;20048;-69
2021/04/28 03:13:14;;;;;;;9.23;4.53;;;;;;;5.34;61.95;97574.47;5077001;28;20075;-69
2021/04/28 03:15:40;;;;;;;7.57;4.68;;;;;;;5.14;61.71;97564.50;5073656;28;20024;-69
2021/04/28 03:18:06;;;;;;;6.55;4.18;;;;;;;5.24;62.01;97573.03;5075590;28;20059;-69
2021/04/28 03:20:34;;;;;;;6.90;4.05;;;;;;;5.21;61.46;97569.88;5075419;28;20020;-69
2021/04/28 03:23:00;;;;;;;8.45;4.03;;;;;;;5.19;61.97;97580.00;5073159;28;20020;-69
2021/04/28 03:25:25;;;;;;;8.68;4.28;;;;;;;5.11;61.52;97580.16;5114222;22;20043;-68
2021/04/28 03:27:51;;;;;;;7.70;4.32;;;;;;;5.16;62.16;97583.91;5072939;28;20107;-68
2021/04/28 03:30:16;;;;;;;8.82;4.10;;;;;;;5.10;62.97;97583.88;5072117;28;20035;-68
2021/04/28 03:32:42;;;;;;;6.10;4.00;;;;;;;5.04;64.18;97580.13;5072064;28;20020;-67
2021/04/28 03:35:08;;;;;;;8.45;4.38;;;;;;;4.92;63.86;97590.56;5073053;28;20024;-68
2021/04/28 03:37:34;;;;;;;8.70;4.70;;;;;;;4.82;64.30;97582.03;5073029;28;20031;-68
2021/04/28 03:39:59;;;;;;;7.60;4.68;;;;;;;4.67;64.74;97568.78;5065203;28;21427;-76
2021/04/28 03:42:25;;;;;;;8.93;4.53;;;;;;;4.56;64.55;97546.06;5054602;28;20029;-75
2021/04/28 03:44:51;;;;;;;6.35;3.92;;;;;;;4.64;64.91;97581.72;5055203;28;20041;-75
2021/04/28 03:47:18;;;;;;;8.07;4.03;;;;;;;4.48;65.27;97564.94;5042845;28;20048;-77
2021/04/28 03:49:44;;;;;;;7.72;4.97;;;;;;;4.55;65.45;97589.91;5036313;28;20028;-74
2021/04/28 03:52:10;;;;;;;9.55;4.57;;;;;;;4.56;65.39;97594.25;5030160;28;20099;-74
2021/04/28 03:54:37;;;;;;;11.02;4.10;;;;;;;4.52;65.28;97576.91;5040409;28;20036;-74
2021/04/28 03:57:04;;;;;;;7.60;4.53;;;;;;;4.59;66.05;97593.06;5045799;28;20033;-70
2021/04/28 03:59:30;;;;;;;7.13;4.50;;;;;;;4.65;66.00;97588.75;5044733;28;20540;-71
2021/04/28 04:01:55;;;;;;;9.90;5.00;;;;;;;4.70;65.65;97581.78;5028519;28;20029;-73
2021/04/28 04:04:20;;;;;;;9.60;4.60;;;;;;;4.56;65.70;97578.19;5051325;28;20079;-73
2021/04/28 04:06:46;;;;;;;9.77;5.30;;;;;;;4.55;65.98;97589.09;5049055;28;20032;-74
2021/04/28 04:09:11;;;;;;;10.45;5.13;;;;;;;4.45;65.69;97578.72;5044691;28;20494;-74
2021/04/28 04:11:36;;;;;;;7.10;4.28;;;;;;;4.45;66.10;97576.03;5051526;28;20033;-75
2021/04/28 04:14:02;;;;;;;9.20;4.32;;;;;;;4.43;65.93;97579.91;5034815;28;20112;-74
2021/04/28 04:16:28;;;;;;;8.82;4.25;;;;;;;4.52;66.35;97595.66;5021500;28;20041;-75
2021/04/28 04:18:53;;;;;;;7.05;4.65;;;;;;;4.53;65.82;97604.53;5040853;28;20040;-76
2021/04/28 04:21:19;;;;;;;8.60;4.60;;;;;;;4.47;65.86;97589.25;5043393;28;20104;-76
2021/04/28 04:23:44;;;;;;;5.72;4.10;;;;;;;4.45;65.48;97597.44;5035284;28;20492;-75
2021/04/28 04:26:10;;;;;;;11.32;5.57;;;;;;;4.55;66.25;97592.59;5041330;28;20037;-73
2021/04/28 04:28:35;;;;;;;7.25;4.75;;;;;;;4.68;65.86;97601.75;5047623;28;20568;-73
2021/04/28 04:31:00;;;;;;;9.02;4.63;;;;;;;4.67;65.69;97603.63;5049762;28;20087;-70
2021/04/28 04:33:25;;;;;;;8.85;5.20;;;;;;;4.76;64.48;97604.28;5031426;28;20021;-70
2021/04/28 04:35:51;;;;;;;12.52;5.65;;;;;;;4.76;65.35;97594.38;5030869;28;20423;-70
2021/04/28 04:38:16;;;;;;;7.80;4.95;;;;;;;4.73;65.45;97588.59;5051305;28;20029;-73
2021/04/28 04:40:43;;;;;;;11.82;4.80;;;;;;;4.83;64.99;97594.44;5057798;28;20043;-77
2021/04/28 04:43:08;;;;;;;9.25;4.85;;;;;;;4.93;64.33;97610.19;5055457;28;20115;-71
2021/04/28 04:45:34;;;;;;;9.93;4.68;;;;;;;4.89;64.11;97599.00;5035202;28;20136;-73
2021/04/28 04:48:03;;;;;;;12.07;5.13;;;;;;;4.91;64.76;97618.41;5050374;28;20103;-72
2021/04/28 04:50:29;;;;;;;10.07;4.80;;;;;;;4.96;64.56;97617.81;5032736;28;20608;-70
2021/04/28 04:52:55;;;;;;;8.63;5.38;;;;;;;4.93;64.35;97605.63;5052372;28;20138;-73
2021/04/28 04:55:21;;;;;;;8.55;4.95;;;;;;;4.99;64.42;97609.38;5043902;28;20041;-73
2021/04/28 04:57:51;;;;;;;7.38;4.32;;;;;;;5.15;63.93;97621.63;5043126;28;20032;-68
2021/04/28 05:00:17;;;;;;;7.97;4.65;;;;;;;5.10;64.04;97599.94;5049124;28;20025;-69
2021/04/28 05:02:42;;;;;;;8.65;4.38;;;;;;;5.23;63.76;97600.03;5031240;28;20021;-70
2021/04/28 05:05:09;;;;;;;8.88;5.22;;;;;;;5.45;63.58;97615.00;5045730;28;20028;-71
2021/04/28 05:07:35;;;;;;;8.35;4.57;;;;;;;5.61;63.25;97613.00;5053702;28;20390;-70
2021/04/28 05:10:00;;;;;;;7.82;4.88;;;;;;;5.71;62.91;97613.41;5057099;28;20103;-70
2021/04/28 05:12:26;;;;;;;8.77;4.85;;;;;;;5.90;62.28;97607.28;5040953;28;20025;-71
2021/04/28 05:14:51;;;;;;;10.52;5.53;;;;;;;6.14;62.04;97605.09;5039729;28;20021;-69
2021/04/28 05:17:17;;;;;;;10.68;5.18;;;;;;;6.25;61.08;97584.84;5057218;28;20477;-73
2021/04/28 05:19:42;;;;;;;8.27;5.43;;;;;;;6.43;60.56;97598.50;5046416;28;20025;-76
2021/04/28 05:22:07;;;;;;;9.73;4.82;;;;;;;6.53;60.84;97617.72;5037868;28;20490;-75
2021/04/28 05:24:32;;;;;;;6.97;4.93;;;;;;;6.55;60.67;97599.53;5036936;28;20025;-74
2021/04/28 05:26:58;;;;;;;14.45;5.05;;;;;;;6.78;60.71;97585.63;5045835;28;20026;-76
2021/04/28 05:29:23;;;;;;;10.55;4.90;;;;;;;7.15;59.58;97615.59;5023520;28;20025;-75
2021/04/28 05:31:48;;;;;;;8.85;4.78;;;;;;;7.25;59.42;97602.50;5037453;28;20032;-75
2021/04/28 05:34:14;;;;;;;11.02;5.47;;;;;;;7.44;58.97;97591.88;5051694;28;20498;-76
2021/04/28 05:36:39;;;;;;;11.65;5.05;;;;;;;7.85;58.44;97614.91;5036307;28;20483;-68
2021/04/28 05:39:05;;;;;;;10.98;5.78;;;;;;;7.89;57.26;97597.28;5041692;28;20487;-77
2021/04/28 05:41:30;;;;;;;10.25;4.93;;;;;;;8.04;57.48;97597.81;5035929;28;20020;-75
2021/04/28 05:43:56;;;;;;;9.13;5.20;;;;;;;8.38;57.21;97611.03;5048248;28;20117;-75
2021/04/28 05:46:22;;;;;;;8.18;4.82;;;;;;;8.67;55.92;97593.41;5019285;28;20080;-76
2021/04/28 05:48:47;;;;;;;8.88;5.10;;;;;;;8.81;55.12;97589.56;5038976;28;20024;-74
2021/04/28 05:51:13;;;;;;;6.38;4.05;;;;;;;9.10;54.61;97598.00;5044470;28;20512;-72
2021/04/28 05:53:38;;;;;;;15.90;5.45;;;;;;;9.20;54.48;97606.41;5054717;28;20037;-73
2021/04/28 05:56:05;;;;;;;8.63;4.90;;;;;;;9.20;53.76;97612.63;5040466;28;20048;-74
2021/04/28 05:58:31;;;;;;;7.13;4.90;;;;;;;9.08;53.79;97609.00;5032572;28;20058;-72
2021/04/28 06:00:56;;;;;;;7.40;5.13;;;;;;;9.36;52.65;97611.22;5048780;28;20048;-73
2021/04/28 06:03:21;;;;;;;9.48;4.75;;;;;;;9.39;52.75;97596.44;5028634;28;20013;-71
2021/04/28 06:05:46;;;;;;;12.80;5.63;;;;;;;9.99;51.96;97606.50;5050521;28;20108;-73
2021/04/28 06:08:13;;;;;;;8.63;4.95;;;;;;;10.70;49.58;97608.34;5046701;28;20022;-74
2021/04/28 06:10:39;;;;;;;8.35;4.75;;;;;;;12.42;46.35;97589.72;5030156;28;20099;-74
2021/04/28 06:13:04;;;;;;;8.48;4.70;;;;;;;14.14;41.91;97598.91;5049102;28;20278;-74
2021/04/28 06:15:30;;;;;;;9.52;4.93;;;;;;;15.62;39.36;97580.19;5055969;28;20029;-75
2021/04/28 06:17:55;;;;;;;10.45;4.88;;;;;;;16.70;38.24;97597.66;5051969;28;20510;-76
2021/04/28 06:20:20;;;;;;;9.60;5.55;;;;;;;16.79;38.53;97577.78;5052147;28;20029;-74
2021/04/28 06:22:46;;;;;;;8.60;4.80;;;;;;;18.26;36.45;97577.59;5054883;28;20422;-76
2021/04/28 06:25:13;;;;;;;11.45;5.63;;;;;;;18.93;35.45;97582.59;5023380;28;20029;-76
2021/04/28 06:27:39;;;;;;;10.43;5.40;;;;;;;19.89;34.16;97569.00;5018211;28;20104;-70
2021/04/28 06:30:06;;;;;;;14.80;6.70;;;;;;;20.16;34.08;97584.81;5046905;28;20118;-79
2021/04/28 06:32:32;;;;;;;10.52;6.20;;;;;;;21.33;32.43;97575.84;5034943;28;20067;-69
2021/04/28 06:34:57;;;;;;;11.50;5.93;;;;;;;21.63;31.79;97579.97;5024726;28;20029;-70
2021/04/28 06:37:22;;;;;;;13.25;6.28;;;;;;;21.30;32.14;97577.28;5034910;28;20029;-75
2021/04/28 06:39:48;;;;;;;12.52;5.78;;;;;;;22.42;31.10;97576.94;5048488;28;20029;-74
2021/04/28 06:42:14;;;;;;;15.48;5.97;;;;;;;22.48;30.84;97559.19;5035446;28;20021;-73
2021/04/28 06:44:40;;;;;;;12.02;5.68;;;;;;;22.97;30.49;97575.94;5050198;28;20029;-78
2021/04/28 06:47:05;;;;;;;15.30;6.28;;;;;;;24.54;28.91;97582.88;5049124;28;20028;-75
2021/04/28 06:49:30;;;;;;;11.55;5.55;;;;;;;25.17;28.40;97572.28;5033901;28;20431;-72
2021/04/28 06:51:56;;;;;;;13.20;5.53;;;;;;;26.06;27.29;97566.91;5049225;28;20061;-76
2021/04/28 06:54:22;;;;;;;15.48;6.10;;;;;;;26.49;26.77;97576.91;5051784;28;20060;-74
2021/04/28 06:56:47;;;;;;;16.10;5.90;;;;;;;24.85;28.47;97571.66;5043747;28;20025;-69
2021/04/28 06:59:17;;;;;;;18.63;6.05;;;;;;;25.65;27.55;97564.78;5041249;28;20108;-69
2021/04/28 07:01:45;;;;;;;18.23;6.40;;;;;;;24.71;28.92;97566.31;5041283;28;20026;-69
2021/04/28 07:04:10;;;;;;;18.25;6.70;;;;;;;24.48;28.99;97571.19;5034093;28;20025;-70
2021/04/28 07:06:37;;;;;;;21.05;6.13;;;;;;;25.23;28.52;97570.16;5035118;28;20112;-70
2021/04/28 07:09:04;;;;;;;7.90;5.13;;;;;;;25.98;27.74;97565.00;5050816;28;20103;-69
2021/04/28 07:11:29;;;;;;;20.80;6.10;;;;;;;26.10;27.56;97572.59;5046515;28;20490;-69
2021/04/28 07:13:55;;;;;;;13.95;5.82;;;;;;;26.84;26.67;97577.44;5043185;28;20029;-72
2021/04/28 07:16:20;;;;;;;12.82;6.03;;;;;;;27.70;25.92;97569.38;5042926;28;20021;-70
2021/04/28 07:18:45;;;;;;;13.48;5.60;;;;;;;27.53;25.83;97569.56;5043340;28;20478;-70
2021/04/28 07:21:11;;;;;;;11.95;6.13;;;;;;;26.42;27.28;97566.34;5041665;28;20060;-71
2021/04/28 07:23:37;;;;;;;13.82;5.72;;;;;;;26.00;27.77;97565.47;5043143;28;20552;-71
2021/04/28 07:26:02;;;;;;;12.80;6.97;;;;;;;26.99;26.25;97564.91;5054008;28;20206;-70
2021/04/28 07:28:28;;;;;;;10.55;6.70;;;;;;;26.21;27.47;97576.59;5039361;28;20036;-74
2021/04/28 07:30:54;;;;;;;11.00;6.78;;;;;;;24.85;29.11;97570.84;5044851;28;21070;-78
2021/04/28 07:33:19;;;;;;;11.90;6.30;;;;;;;26.44;27.29;97564.03;5056495;28;20051;-74
2021/04/28 07:35:44;;;;;;;10.77;5.97;;;;;;;26.89;26.56;97552.25;5072727;28;20028;-77
2021/04/28 07:38:10;;;;;;;13.15;6.68;;;;;;;25.90;27.36;97569.44;5044555;28;20432;-73
2021/04/28 07:40:35;;;;;;;14.45;6.43;;;;;;;25.87;27.66;97569.31;5031474;28;20033;-77
2021/04/28 07:43:01;;;;;;;11.70;6.63;;;;;;;26.61;26.94;97565.09;5040558;28;20084;-76
2021/04/28 07:45:26;;;;;;;11.40;6.65;;;;;;;25.18;28.45;97562.88;5035634;28;20482;-76
2021/04/28 07:47:52;;;;;;;14.43;6.45;;;;;;;25.86;27.64;97564.88;5052457;28;20017;-76
2021/04/28 07:50:17;;;;;;;12.05;7.20;;;;;;;25.96;28.18;97564.50;5048859;28;20390;-79
2021/04/28 07:52:43;;;;;;;8.77;6.50;;;;;;;26.32;27.68;97561.19;5043651;28;20406;-77
2021/04/28 07:55:10;;;;;;;16.70;7.60;;;;;;;25.74;28.50;97569.16;5053641;28;20036;-79
2021/04/28 07:57:36;;;;;;;15.52;6.75;;;;;;;26.04;28.56;97565.63;5043346;28;20702;-76
2021/04/28 08:00:02;;;;;;;14.82;7.00;;;;;;;26.56;27.44;97568.06;5054436;28;20025;-78
2021/04/28 08:02:27;;;;;;;13.10;7.13;;;;;;;25.47;28.10;97553.00;5045766;28;20025;-78
2021/04/28 08:04:52;;;;;;;11.50;7.20;;;;;;;26.86;27.26;97564.06;5049696;28;20025;-76
2021/04/28 08:07:17;;;;;;;10.15;7.28;;;;;;;27.21;27.11;97558.16;5033764;28;20051;-73
2021/04/28 08:09:45;;;;;;;15.30;7.10;;;;;;;26.96;26.47;97545.34;5048022;28;20081;-79
2021/04/28 08:12:11;;;;;;;12.02;7.15;;;;;;;26.82;27.50;97553.97;5031784;28;20040;-78
2021/04/28 08:14:36;;;;;;;14.50;6.78;;;;;;;26.37;28.11;97563.75;5067675;28;20577;-75
2021/04/28 08:17:02;;;;;;;11.30;7.22;;;;;;;27.10;27.54;97546.66;5051935;28;20047;-73
2021/04/28 08:19:27;;;;;;;12.98;7.55;;;;;;;26.59;27.72;97554.34;5046653;28;20104;-72
2021/04/28 08:21:56;;;;;;;12.77;7.22;;;;;;;27.73;26.41;97540.88;5032935;28;20033;-74
2021/04/28 08:24:22;;;;;;;10.45;7.07;;;;;;;26.33;27.85;97550.91;5035722;28;20083;-76
2021/04/28 08:26:48;;;;;;;12.48;7.90;;;;;;;26.20;28.20;97556.38;5032061;28;20034;-77
2021/04/28 08:29:13;;;;;;;11.60;7.32;;;;;;;27.71;26.56;97548.75;5014084;28;20025;-75
2021/04/28 08:31:38;;;;;;;15.20;7.85;;;;;;;27.01;27.26;97561.78;5036499;28;20039;-81
2021/04/28 08:34:04;;;;;;;12.95;7.45;;;;;;;27.78;26.88;97550.16;5043488;28;20115;-76
2021/04/28 08:36:33;;;;;;;12.68;7.80;;;;;;;26.41;28.13;97566.69;5054121;28;20475;-72
2021/04/28 08:38:58;;;;;;;14.50;7.32;;;;;;;26.00;28.95;97566.28;5048410;28;20036;-76
2021/04/28 08:41:24;;;;;;;13.40;7.80;;;;;;;27.21;27.58;97547.06;5028952;28;20136;-78
2021/04/28 08:43:49;;;;;;;13.65;7.32;;;;;;;27.65;26.98;97554.91;5031806;28;20497;-73
2021/04/28 08:46:14;;;;;;;11.65;7.63;;;;;;;28.83;25.69;97539.09;5032069;28;20578;-73
2021/04/28 08:48:40;;;;;;;12.32;7.47;;;;;;;28.49;26.06;97560.78;5042167;28;20021;-72
2021/04/28 08:51:06;;;;;;;12.77;7.38;;;;;;;27.70;26.98;97552.69;5044492;28;20029;-69
2021/04/28 08:53:32;;;;;;;12.32;7.72;;;;;;;27.86;27.13;97543.72;5047292;28;20032;-74
2021/04/28 08:56:04;;;;;;;13.13;7.75;;;;;;;27.96;26.54;97548.81;5033495;28;20029;-75
2021/04/28 08:58:29;;;;;;;9.90;7.22;;;;;;;30.00;25.34;97537.00;5016957;28;20387;-74
2021/04/28 09:00:55;;;;;;;12.10;7.72;;;;;;;29.71;24.75;97539.09;5049614;28;20040;-73
2021/04/28 09:03:20;;;;;;;12.15;7.20;;;;;;;29.36;25.50;97534.19;5038652;28;20078;-76
2021/04/28 09:05:47;;;;;;;12.38;7.55;;;;;;;28.24;26.15;97542.50;5049973;28;20036;-79
2021/04/28 09:08:13;;;;;;;12.70;7.43;;;;;;;29.45;24.81;97518.13;5035562;28;20139;-82
2021/04/28 09:10:40;;;;;;;13.57;7.18;;;;;;;29.12;25.14;97548.28;5035661;28;20021;-76
2021/04/28 09:13:09;;;;;;;11.43;7.45;;;;;;;30.13;24.36;97538.53;5050070;28;20039;-76
2021/04/28 09:15:43;;;;;;;11.90;7.90;;;;;;;29.20;24.84;97538.94;5052375;28;20108;-80
2021/04/28 09:18:11;;;;;;;12.23;7.80;;;;;;;29.35;24.89;97526.22;5044239;28;20029;-77
2021/04/28 09:20:40;;;;;;;18.08;9.02;;;;;;;30.17;24.03;97528.22;5037628;28;20029;-82
2021/04/28 09:23:19;;;;;;;13.27;7.60;;;;;;;30.55;23.64;97535.88;5030650;28;20369;-70
2021/04/28 09:25:53;;;;;;;16.63;8.75;;;;;;;30.13;24.33;97538.53;5109014;22;20044;-83
2021/04/28 09:28:32;;;;;;;11.88;7.68;;;;;;;30.19;23.87;97539.84;5088525;28;20032;-71
2021/04/28 09:31:07;;;;;;;13.85;8.10;;;;;;;30.65;23.22;97536.47;5053440;28;20382;-74
2021/04/28 09:33:41;;;;;;;16.27;8.98;;;;;;;30.51;23.56;97539.78;5079532;28;20016;-75
2021/04/28 09:36:07;;;;;;;15.02;8.80;;;;;;;30.45;23.20;97536.47;5066595;28;20033;-74
2021/04/28 09:38:50;;;;;;;12.82;8.32;;;;;;;31.76;22.20;97541.41;5054701;28;20429;-74
2021/04/28 09:41:40;;;;;;;17.75;8.35;;;;;;;31.88;22.31;97532.78;5064258;28;20021;-71
2021/04/28 09:44:20;;;;;;;17.92;8.35;;;;;;;31.56;22.71;97529.47;5052600;28;20665;-71
2021/04/28 09:46:57;;;;;;;13.77;8.45;;;;;;;31.65;22.79;97533.63;5061153;28;20020;-74
2021/04/28 09:49:23;;;;;;;14.98;8.93;;;;;;;32.37;21.55;97526.34;5066245;28;20023;-72
2021/04/28 09:51:59;;;;;;;12.65;8.68;;;;;;;31.49;22.48;97526.56;5060128;28;20040;-74
2021/04/28 09:54:29;;;;;;;16.83;9.35;;;;;;;32.62;21.92;97520.28;5070708;28;20032;-74
2021/04/28 09:56:55;;;;;;;12.73;9.00;;;;;;;31.69;22.39;97522.50;5085349;28;20020;-74
2021/04/28 09:59:20;;;;;;;13.05;8.73;;;;;;;31.88;22.07;97522.41;5069932;28;20078;-67
2021/04/28 10:01:45;;;;;;;14.48;8.73;;;;;;;30.41;22.77;97518.03;5054092;28;20056;-65
2021/04/28 10:04:10;;;;;;;15.00;8.82;;;;;;;32.41;21.67;97507.63;5057733;28;20497;-75
2021/04/28 10:06:47;;;;;;;17.20;9.10;;;;;;;31.98;21.54;97514.59;5059400;28;20025;-75
2021/04/28 10:09:29;;;;;;;12.05;8.43;;;;;;;32.30;20.80;97517.84;5048166;28;20055;-75
2021/04/28 10:11:55;;;;;;;13.90;7.95;;;;;;;32.30;20.61;97501.06;5041563;28;20498;-75
2021/04/28 10:14:20;;;;;;;11.27;8.63;;;;;;;30.62;21.89;97501.72;5057576;28;20029;-75
2021/04/28 10:16:47;;;;;;;13.23;8.75;;;;;;;31.39;21.36;97500.06;5051394;28;20166;-75
2021/04/28 10:19:15;;;;;;;11.13;7.55;;;;;;;31.94;20.49;97503.38;5038703;28;20033;-74
2021/04/28 10:21:42;;;;;;;9.83;6.70;;;;;;;31.70;19.72;97486.94;5071471;28;20036;-73
2021/04/28 10:24:09;;;;;;;9.45;6.50;;;;;;;32.26;19.40;97492.63;5047256;28;20263;-76
2021/04/28 10:26:36;;;;;;;10.10;6.60;;;;;;;31.20;19.97;97490.50;5058735;28;20029;-73
2021/04/28 10:29:02;;;;;;;9.15;6.78;;;;;;;31.27;19.85;97489.00;5054789;28;20074;-77
2021/04/28 10:31:28;;;;;;;7.60;5.85;;;;;;;31.82;18.40;97486.75;5054554;28;20028;-72
2021/04/28 10:33:57;;;;;;;11.43;6.43;;;;;;;31.07;18.35;97489.03;5055978;28;20029;-73
2021/04/28 10:36:22;;;;;;;9.73;6.53;;;;;;;29.69;20.33;97483.72;5060165;28;20028;-73
2021/04/28 10:38:48;;;;;;;15.02;7.53;;;;;;;29.33;20.56;97479.19;5054210;28;20116;-74
2021/04/28 10:41:42;;;;;;;11.77;7.90;;;;;;;31.50;18.96;97480.66;5054506;28;20104;-73
2021/04/28 10:44:30;;;;;;;9.55;5.80;;;;;;;31.08;17.94;97478.72;5057208;28;20037;-74
2021/04/28 10:47:14;;;;;;;8.48;5.53;;;;;;;30.12;19.07;97475.50;5065414;28;20032;-74
2021/04/28 10:49:58;;;;;;;8.90;5.75;;;;;;;29.49;19.75;97471.63;5061814;28;20024;-74
2021/04/28 10:52:28;;;;;;;9.35;6.32;;;;;;;29.37;19.18;97470.94;5069693;28;20025;-73
2021/04/28 10:54:54;;;;;;;8.90;6.20;;;;;;;30.52;18.39;97463.22;5056432;28;20028;-74
2021/04/28 10:57:38;;;;;;;10.63;5.55;;;;;;;31.36;17.90;97416.88;5047534;28;20036;-73
2021/04/28 11:00:18;;;;;;;7.80;4.45;;;;;;;30.13;17.57;97474.34;5073511;28;20020;-74
2021/04/28 11:02:44;;;;;;;6.63;4.07;;;;;;;29.25;18.15;97467.06;5039896;28;20386;-74
2021/04/28 11:05:20;;;;;;;6.63;4.43;;;;;;;29.27;19.22;97461.16;5069697;28;20073;-73
2021/04/28 11:07:52;;;;;;;7.68;5.13;;;;;;;29.34;19.41;97469.66;5070931;28;20082;-66
2021/04/28 11:10:35;;;;;;;7.32;4.82;;;;;;;30.26;18.18;97461.91;5066845;28;20462;-65
2021/04/28 11:13:09;;;;;;;7.13;4.75;;;;;;;30.20;18.20;97457.75;5051118;28;20064;-74
2021/04/28 11:15:51;;;;;;;7.75;4.82;;;;;;;29.50;18.78;97458.50;5038370;28;20028;-75
2021/04/28 11:18:35;;;;;;;5.85;4.55;;;;;;;28.66;19.36;97461.47;5064257;28;20518;-74
2021/04/28 11:21:16;;;;;;;8.73;5.28;;;;;;;29.78;18.92;97461.19;5057729;28;20526;-75
2021/04/28 11:24:06;;;;;;;7.05;4.90;;;;;;;29.16;19.50;97460.88;5054991;28;20029;-75
2021/04/28 11:26:34;;;;;;;7.00;5.05;;;;;;;30.32;19.34;97454.88;5055375;28;20521;-75
2021/04/28 11:29:00;;;;;;;11.80;5.60;;;;;;;30.66;18.23;97457.94;5052433;28;20037;-69
2021/04/28 11:31:54;;;;;;;9.77;5.30;;;;;;;31.38;17.71;97450.91;5059647;28;20628;-69
2021/04/28 11:34:34;;;;;;;10.23;4.95;;;;;;;31.51;18.91;97455.09;5066888;28;20040;-69